sensor_id;sensor_type;location;lat;lon;timestamp;pressure;altitude;pressure_sealevel;temperature;humidity
51099;BME280;37146;48.210;16.234;2023-05-19T00:01:41;99518.19;;;7.61;100.00
51099;BME280;37146;48.210;16.234;2023-05-19T00:04:08;99520.91;;;7.60;100.00
51099;BME280;37146;48.210;16.234;2023-05-19T00:06:33;99515.47;;;7.63;100.00
51099;BME280;37146;48.210;16.234;2023-05-19T00:09:01;99509.13;;;7.67;100.00
51099;BME280;37146;48.210;16.234;2023-05-19T00:11:26;99509.13;;;7.67;100.00
51099;BME280;37146;48.210;16.234;2023-05-19T00:13:52;99510.91;;;7.66;100.00
51099;BME280;37146;48.210;16.234;2023-05-19T00:16:18;99510.88;;;7.68;100.00
51099;BME280;37146;48.210;16.234;2023-05-19T00:18:43;99510.16;;;7.63;100.00
51099;BME280;37146;48.210;16.234;2023-05-19T00:21:09;99516.38;;;7.62;100.00
51099;BME280;37146;48.210;16.234;2023-05-19T00:23:34;99510.25;;;7.60;100.00
51099;BME280;37146;48.210;16.234;2023-05-19T00:25:59;99511.28;;;7.55;100.00
51099;BME280;37146;48.210;16.234;2023-05-19T00:28:24;99507.53;;;7.61;100.00
51099;BME280;37146;48.210;16.234;2023-05-19T00:30:50;99500.56;;;7.57;100.00
51099;BME280;37146;48.210;16.234;2023-05-19T00:33:15;99509.47;;;7.56;100.00
51099;BME280;37146;48.210;16.234;2023-05-19T00:35:40;99499.84;;;7.52;100.00
51099;BME280;37146;48.210;16.234;2023-05-19T00:38:05;99504.13;;;7.57;100.00
51099;BME280;37146;48.210;16.234;2023-05-19T00:40:31;99500.69;;;7.54;100.00
51099;BME280;37146;48.210;16.234;2023-05-19T00:42:59;99493.56;;;7.54;100.00
51099;BME280;37146;48.210;16.234;2023-05-19T00:45:24;99495.38;;;7.52;100.00
51099;BME280;37146;48.210;16.234;2023-05-19T00:47:49;99498.03;;;7.52;100.00
51099;BME280;37146;48.210;16.234;2023-05-19T00:50:14;99493.75;;;7.48;100.00
51099;BME280;37146;48.210;16.234;2023-05-19T00:52:40;99492.84;;;7.49;100.00
51099;BME280;37146;48.210;16.234;2023-05-19T00:55:05;99496.13;;;7.57;100.00
51099;BME280;37146;48.210;16.234;2023-05-19T00:57:31;99492.63;;;7.55;100.00
51099;BME280;37146;48.210;16.234;2023-05-19T00:59:57;99489.38;;;7.46;100.00
51099;BME280;37146;48.210;16.234;2023-05-19T01:02:22;99491.03;;;7.50;100.00
51099;BME280;37146;48.210;16.234;2023-05-19T01:04:47;99490.41;;;7.41;100.00
51099;BME280;37146;48.210;16.234;2023-05-19T01:07:14;99483.13;;;7.47;100.00
51099;BME280;37146;48.210;16.234;2023-05-19T01:09:40;99491.19;;;7.45;100.00
51099;BME280;37146;48.210;16.234;2023-05-19T01:12:05;99489.53;;;7.41;100.00
51099;BME280;37146;48.210;16.234;2023-05-19T01:14:31;99496.69;;;7.39;100.00
51099;BME280;37146;48.210;16.234;2023-05-19T01:19:40;99489.53;;;7.41;100.00
51099;BME280;37146;48.210;16.234;2023-05-19T01:22:26;99492.47;;;7.32;100.00
51099;BME280;37146;48.210;16.234;2023-05-19T01:25:07;99487.44;;;7.22;100.00
51099;BME280;37146;48.210;16.234;2023-05-19T01:30:32;99483.78;;;7.26;100.00
51099;BME280;37146;48.210;16.234;2023-05-19T01:33:01;99487.50;;;7.21;100.00
51099;BME280;37146;48.210;16.234;2023-05-19T01:35:27;99487.34;;;7.25;100.00
51099;BME280;37146;48.210;16.234;2023-05-19T01:37:53;99489.28;;;7.20;100.00
51099;BME280;37146;48.210;16.234;2023-05-19T01:40:19;99477.81;;;7.18;100.00
51099;BME280;37146;48.210;16.234;2023-05-19T01:42:45;99474.34;;;7.16;100.00
51099;BME280;37146;48.210;16.234;2023-05-19T01:45:11;99478.00;;;7.12;100.00
51099;BME280;37146;48.210;16.234;2023-05-19T01:47:41;99478.00;;;7.12;100.00
51099;BME280;37146;48.210;16.234;2023-05-19T01:50:07;99474.34;;;7.16;100.00
51099;BME280;37146;48.210;16.234;2023-05-19T01:52:32;99479.81;;;7.10;100.00
51099;BME280;37146;48.210;16.234;2023-05-19T01:54:58;99477.91;;;7.15;100.00
51099;BME280;37146;48.210;16.234;2023-05-19T01:57:23;99478.00;;;7.12;100.00
51099;BME280;37146;48.210;16.234;2023-05-19T02:02:25;99485.09;;;7.11;100.00
51099;BME280;37146;48.210;16.234;2023-05-19T02:04:54;99490.53;;;7.08;100.00
51099;BME280;37146;48.210;16.234;2023-05-19T02:10:05;99482.63;;;7.05;100.00
51099;BME280;37146;48.210;16.234;2023-05-19T02:12:33;99482.56;;;7.07;100.00
51099;BME280;37146;48.210;16.234;2023-05-19T02:17:24;99484.38;;;7.06;100.00
51099;BME280;37146;48.210;16.234;2023-05-19T02:19:51;99478.16;;;7.06;100.00
51099;BME280;37146;48.210;16.234;2023-05-19T02:22:16;99479.00;;;7.08;100.00
51099;BME280;37146;48.210;16.234;2023-05-19T02:24:41;99470.06;;;7.10;100.00
51099;BME280;37146;48.210;16.234;2023-05-19T02:27:08;99475.50;;;7.06;100.00
51099;BME280;37146;48.210;16.234;2023-05-19T02:29:33;99479.06;;;7.06;100.00
51099;BME280;37146;48.210;16.234;2023-05-19T02:31:59;99478.22;;;7.04;100.00
51099;BME280;37146;48.210;16.234;2023-05-19T02:34:25;99470.56;;;6.93;100.00
51099;BME280;37146;48.210;16.234;2023-05-19T02:36:50;99475.97;;;6.90;100.00
51099;BME280;37146;48.210;16.234;2023-05-19T02:39:16;99467.91;;;6.93;100.00
51099;BME280;37146;48.210;16.234;2023-05-19T02:41:41;99468.78;;;6.94;100.00
51099;BME280;37146;48.210;16.234;2023-05-19T02:44:06;99461.00;;;6.86;100.00
51099;BME280;37146;48.210;16.234;2023-05-19T02:46:32;99450.56;;;6.80;100.00
51099;BME280;37146;48.210;16.234;2023-05-19T02:48:57;99449.66;;;6.81;100.00
51099;BME280;37146;48.210;16.234;2023-05-19T02:51:22;99455.84;;;6.81;100.00
51099;BME280;37146;48.210;16.234;2023-05-19T02:53:48;99456.59;;;6.87;100.00
51099;BME280;37146;48.210;16.234;2023-05-19T02:56:13;99454.91;;;6.83;100.00
51099;BME280;37146;48.210;16.234;2023-05-19T02:58:38;99453.19;;;6.81;100.00
51099;BME280;37146;48.210;16.234;2023-05-19T03:01:03;99452.31;;;6.81;100.00
51099;BME280;37146;48.210;16.234;2023-05-19T03:03:28;99452.22;;;6.84;100.00
51099;BME280;37146;48.210;16.234;2023-05-19T03:05:54;99457.53;;;6.84;100.00
51099;BME280;37146;48.210;16.234;2023-05-19T03:08:19;99459.13;;;6.90;100.00
51099;BME280;37146;48.210;16.234;2023-05-19T03:10:45;99461.72;;;6.93;100.00
51099;BME280;37146;48.210;16.234;2023-05-19T03:13:10;99460.75;;;6.95;100.00
51099;BME280;37146;48.210;16.234;2023-05-19T03:15:36;99467.81;;;6.96;100.00
51099;BME280;37146;48.210;16.234;2023-05-19T03:18:01;99463.50;;;6.92;100.00
51099;BME280;37146;48.210;16.234;2023-05-19T03:20:26;99469.53;;;6.97;100.00
51099;BME280;37146;48.210;16.234;2023-05-19T03:22:51;99474.00;;;6.97;100.00
51099;BME280;37146;48.210;16.234;2023-05-19T03:25:16;99469.47;;;7.01;100.00
51099;BME280;37146;48.210;16.234;2023-05-19T03:27:42;99465.97;;;6.99;100.00
51099;BME280;37146;48.210;16.234;2023-05-19T03:30:07;99470.47;;;6.96;100.00
51099;BME280;37146;48.210;16.234;2023-05-19T03:32:33;99473.09;;;6.98;100.00
51099;BME280;37146;48.210;16.234;2023-05-19T03:35:01;99477.53;;;6.97;100.00
51099;BME280;37146;48.210;16.234;2023-05-19T03:37:26;99474.59;;;7.07;100.00
51099;BME280;37146;48.210;16.234;2023-05-19T03:39:52;99479.13;;;7.03;100.00
51099;BME280;37146;48.210;16.234;2023-05-19T03:42:17;99479.13;;;7.03;100.00
51099;BME280;37146;48.210;16.234;2023-05-19T03:44:42;99482.81;;;6.99;100.00
51099;BME280;37146;48.210;16.234;2023-05-19T03:47:08;99478.28;;;7.03;100.00
51099;BME280;37146;48.210;16.234;2023-05-19T03:49:33;99478.28;;;7.03;100.00
51099;BME280;37146;48.210;16.234;2023-05-19T03:51:59;99479.91;;;7.07;100.00
51099;BME280;37146;48.210;16.234;2023-05-19T03:54:27;99486.97;;;7.08;100.00
51099;BME280;37146;48.210;16.234;2023-05-19T03:56:52;99482.34;;;7.15;100.00
51099;BME280;37146;48.210;16.234;2023-05-19T03:59:17;99475.25;;;7.15;100.00
51099;BME280;37146;48.210;16.234;2023-05-19T04:01:42;99476.09;;;7.16;100.00
51099;BME280;37146;48.210;16.234;2023-05-19T04:04:08;99476.06;;;7.17;100.00
51099;BME280;37146;48.210;16.234;2023-05-19T04:06:33;99479.66;;;7.16;100.00
51099;BME280;37146;48.210;16.234;2023-05-19T04:08:58;99481.50;;;7.14;100.00
51099;BME280;37146;48.210;16.234;2023-05-19T04:11:23;99480.50;;;7.17;100.00
51099;BME280;37146;48.210;16.234;2023-05-19T04:13:49;99482.25;;;7.18;100.00
51099;BME280;37146;48.210;16.234;2023-05-19T04:16:14;99484.09;;;7.16;100.00
51099;BME280;37146;48.210;16.234;2023-05-19T04:18:39;99481.50;;;7.14;100.00
51099;BME280;37146;48.210;16.234;2023-05-19T04:21:04;99483.25;;;7.14;100.00
51099;BME280;37146;48.210;16.234;2023-05-19T04:23:32;99490.31;;;7.15;100.00
51099;BME280;37146;48.210;16.234;2023-05-19T04:25:57;99492.91;;;7.18;100.00
51099;BME280;37146;48.210;16.234;2023-05-19T04:28:23;99490.25;;;7.18;100.00
51099;BME280;37146;48.210;16.234;2023-05-19T04:30:48;99498.03;;;7.24;100.00
51099;BME280;37146;48.210;16.234;2023-05-19T04:33:14;99485.69;;;7.21;100.00
51099;BME280;37146;48.210;16.234;2023-05-19T04:35:39;99485.53;;;7.27;100.00
51099;BME280;37146;48.210;16.234;2023-05-19T04:38:05;99483.88;;;7.23;100.00
51099;BME280;37146;48.210;16.234;2023-05-19T04:40:30;99484.69;;;7.25;100.00
51099;BME280;37146;48.210;16.234;2023-05-19T04:42:55;99481.91;;;7.28;100.00
51099;BME280;37146;48.210;16.234;2023-05-19T04:45:21;99484.41;;;7.35;100.00
51099;BME280;37146;48.210;16.234;2023-05-19T04:47:47;99473.69;;;7.38;100.00
51099;BME280;37146;48.210;16.234;2023-05-19T04:50:12;99477.13;;;7.40;100.00
51099;BME280;37146;48.210;16.234;2023-05-19T04:52:38;99479.78;;;7.41;100.00
51099;BME280;37146;48.210;16.234;2023-05-19T04:55:03;99474.22;;;7.49;100.00
51099;BME280;37146;48.210;16.234;2023-05-19T04:57:28;99478.31;;;7.60;100.00
51099;BME280;37146;48.210;16.234;2023-05-19T04:59:54;99484.41;;;7.63;100.00
51099;BME280;37146;48.210;16.234;2023-05-19T05:02:24;99483.34;;;7.69;100.00
51099;BME280;37146;48.210;16.234;2023-05-19T05:04:49;99483.22;;;7.72;100.00
51099;BME280;37146;48.210;16.234;2023-05-19T05:07:14;99490.13;;;7.79;100.00
51099;BME280;37146;48.210;16.234;2023-05-19T05:09:39;99484.56;;;7.85;100.00
51099;BME280;37146;48.210;16.234;2023-05-19T05:12:05;99486.69;;;7.76;100.00
51099;BME280;37146;48.210;16.234;2023-05-19T05:14:32;99481.91;;;7.85;100.00
51099;BME280;37146;48.210;16.234;2023-05-19T05:16:57;99482.03;;;7.82;100.00
51099;BME280;37146;48.210;16.234;2023-05-19T05:19:22;99487.88;;;7.94;100.00
51099;BME280;37146;48.210;16.234;2023-05-19T05:21:48;99486.22;;;7.89;100.00
51099;BME280;37146;48.210;16.234;2023-05-19T05:24:13;99484.25;;;7.95;100.00
51099;BME280;37146;48.210;16.234;2023-05-19T05:26:38;99489.41;;;8.01;100.00
51099;BME280;37146;48.210;16.234;2023-05-19T05:29:04;99486.50;;;8.07;100.00
51099;BME280;37146;48.210;16.234;2023-05-19T05:31:30;99489.09;;;8.10;100.00
51099;BME280;37146;48.210;16.234;2023-05-19T05:33:55;99499.75;;;8.10;100.00
51099;BME280;37146;48.210;16.234;2023-05-19T05:36:21;99496.09;;;8.13;100.00
51099;BME280;37146;48.210;16.234;2023-05-19T05:38:46;99494.19;;;8.16;100.00
51099;BME280;37146;48.210;16.234;2023-05-19T05:41:11;99489.38;;;8.28;100.00
51099;BME280;37146;48.210;16.234;2023-05-19T05:43:36;99490.59;;;8.44;100.00
51099;BME280;37146;48.210;16.234;2023-05-19T05:46:02;99492.53;;;8.39;100.00
51099;BME280;37146;48.210;16.234;2023-05-19T05:48:27;99490.09;;;8.60;100.00
51099;BME280;37146;48.210;16.234;2023-05-19T05:50:52;99494.25;;;8.67;100.00
51099;BME280;37146;48.210;16.234;2023-05-19T05:53:19;99495.66;;;8.77;100.00
51099;BME280;37146;48.210;16.234;2023-05-19T05:55:47;99495.66;;;8.77;100.00
51099;BME280;37146;48.210;16.234;2023-05-19T05:58:12;99493.22;;;8.95;100.00
51099;BME280;37146;48.210;16.234;2023-05-19T06:00:40;99495.69;;;9.01;100.00
51099;BME280;37146;48.210;16.234;2023-05-19T06:03:09;99494.53;;;9.08;100.00
51099;BME280;37146;48.210;16.234;2023-05-19T06:05:35;99495.41;;;9.09;100.00
51099;BME280;37146;48.210;16.234;2023-05-19T06:08:00;99497.59;;;8.97;100.00
51099;BME280;37146;48.210;16.234;2023-05-19T06:10:26;99491.00;;;9.08;100.00
51099;BME280;37146;48.210;16.234;2023-05-19T06:12:52;99489.47;;;9.01;100.00
51099;BME280;37146;48.210;16.234;2023-05-19T06:15:17;99502.06;;;8.97;100.00
51099;BME280;37146;48.210;16.234;2023-05-19T06:17:42;99494.41;;;9.11;100.00
51099;BME280;37146;48.210;16.234;2023-05-19T06:20:07;99496.19;;;9.35;100.00
51099;BME280;37146;48.210;16.234;2023-05-19T06:22:34;99494.41;;;9.35;100.00
51099;BME280;37146;48.210;16.234;2023-05-19T06:24:59;99498.84;;;9.11;100.00
51099;BME280;37146;48.210;16.234;2023-05-19T06:27:24;99493.59;;;9.09;100.00
51099;BME280;37146;48.210;16.234;2023-05-19T06:29:50;99496.28;;;9.32;100.00
51099;BME280;37146;48.210;16.234;2023-05-19T06:32:15;99501.03;;;9.47;100.00
51099;BME280;37146;48.210;16.234;2023-05-19T06:34:40;99494.47;;;9.56;100.00
51099;BME280;37146;48.210;16.234;2023-05-19T06:37:05;99496.69;;;9.67;100.00
51099;BME280;37146;48.210;16.234;2023-05-19T06:39:31;99506.56;;;9.42;100.00
51099;BME280;37146;48.210;16.234;2023-05-19T06:41:56;99490.81;;;9.58;100.00
51099;BME280;37146;48.210;16.234;2023-05-19T06:44:21;99496.66;;;9.68;100.00
51099;BME280;37146;48.210;16.234;2023-05-19T06:46:46;99489.31;;;9.73;100.00
51099;BME280;37146;48.210;16.234;2023-05-19T06:49:12;99498.63;;;10.08;100.00
51099;BME280;37146;48.210;16.234;2023-05-19T06:51:37;99485.75;;;10.17;100.00
51099;BME280;37146;48.210;16.234;2023-05-19T06:54:02;99492.00;;;10.39;100.00
51099;BME280;37146;48.210;16.234;2023-05-19T06:56:27;99497.47;;;10.35;100.00
51099;BME280;37146;48.210;16.234;2023-05-19T06:58:52;99498.16;;;10.61;100.00
51099;BME280;37146;48.210;16.234;2023-05-19T07:01:18;99494.50;;;10.83;100.00
51099;BME280;37146;48.210;16.234;2023-05-19T07:03:43;99495.31;;;10.85;100.00
51099;BME280;37146;48.210;16.234;2023-05-19T07:06:08;99494.84;;;11.15;100.00
51099;BME280;37146;48.210;16.234;2023-05-19T07:08:33;99505.28;;;10.81;100.00
51099;BME280;37146;48.210;16.234;2023-05-19T07:11:01;99501.81;;;11.19;100.00
51099;BME280;37146;48.210;16.234;2023-05-19T07:13:26;99505.28;;;11.40;98.31
51099;BME280;37146;48.210;16.234;2023-05-19T07:15:51;99501.63;;;11.99;100.00
51099;BME280;37146;48.210;16.234;2023-05-19T07:18:19;99494.31;;;11.64;95.96
51099;BME280;37146;48.210;16.234;2023-05-19T07:20:45;99501.94;;;11.54;99.53
51099;BME280;37146;48.210;16.234;2023-05-19T07:23:10;99496.28;;;11.60;95.12
51099;BME280;37146;48.210;16.234;2023-05-19T07:25:35;99499.50;;;12.23;94.61
51099;BME280;37146;48.210;16.234;2023-05-19T07:28:00;99502.81;;;11.91;92.51
51099;BME280;37146;48.210;16.234;2023-05-19T07:30:26;99499.88;;;11.98;95.42
51099;BME280;37146;48.210;16.234;2023-05-19T07:32:51;99500.78;;;11.79;96.23
51099;BME280;37146;48.210;16.234;2023-05-19T07:35:17;99497.34;;;11.75;94.71
51099;BME280;37146;48.210;16.234;2023-05-19T07:37:42;99501.28;;;11.49;94.25
51099;BME280;37146;48.210;16.234;2023-05-19T07:40:07;99490.59;;;12.05;98.00
51099;BME280;37146;48.210;16.234;2023-05-19T07:42:32;99499.38;;;12.26;94.53
51099;BME280;37146;48.210;16.234;2023-05-19T07:44:58;99494.69;;;12.65;91.25
51099;BME280;37146;48.210;16.234;2023-05-19T07:47:23;99495.16;;;13.07;87.39
51099;BME280;37146;48.210;16.234;2023-05-19T07:49:48;99493.28;;;12.58;87.16
51099;BME280;37146;48.210;16.234;2023-05-19T07:52:13;99496.75;;;12.60;89.52
51099;BME280;37146;48.210;16.234;2023-05-19T07:54:39;99485.97;;;12.95;87.78
51099;BME280;37146;48.210;16.234;2023-05-19T07:57:04;99487.50;;;12.83;88.72
51099;BME280;37146;48.210;16.234;2023-05-19T07:59:29;99496.69;;;12.95;88.88
51099;BME280;37146;48.210;16.234;2023-05-19T08:01:55;99481.94;;;12.52;87.63
51099;BME280;37146;48.210;16.234;2023-05-19T08:04:20;99487.44;;;12.67;88.17
51099;BME280;37146;48.210;16.234;2023-05-19T08:06:45;99493.50;;;12.71;86.16
51099;BME280;37146;48.210;16.234;2023-05-19T08:09:10;99479.97;;;12.90;88.05
51099;BME280;37146;48.210;16.234;2023-05-19T08:11:36;99495.66;;;12.97;84.25
51099;BME280;37146;48.210;16.234;2023-05-19T08:14:01;99494.59;;;12.84;84.94
51099;BME280;37146;48.210;16.234;2023-05-19T08:16:26;99496.97;;;13.40;86.21
51099;BME280;37146;48.210;16.234;2023-05-19T08:18:52;99497.84;;;13.40;86.62
51099;BME280;37146;48.210;16.234;2023-05-19T08:21:17;99493.91;;;13.30;88.17
51099;BME280;37146;48.210;16.234;2023-05-19T08:23:42;99493.56;;;12.87;87.73
51099;BME280;37146;48.210;16.234;2023-05-19T08:26:07;99497.91;;;12.89;87.82
51099;BME280;37146;48.210;16.234;2023-05-19T08:28:33;99493.66;;;12.67;87.03
51099;BME280;37146;48.210;16.234;2023-05-19T08:30:58;99490.13;;;13.01;87.29
51099;BME280;37146;48.210;16.234;2023-05-19T08:33:23;99498.94;;;12.87;86.30
51099;BME280;37146;48.210;16.234;2023-05-19T08:35:48;99494.41;;;12.87;85.80
51099;BME280;37146;48.210;16.234;2023-05-19T08:38:14;99486.91;;;13.27;84.89
51099;BME280;37146;48.210;16.234;2023-05-19T08:40:42;99484.25;;;13.10;84.13
51099;BME280;37146;48.210;16.234;2023-05-19T08:43:10;99483.03;;;13.65;82.18
51099;BME280;37146;48.210;16.234;2023-05-19T08:45:35;99483.59;;;13.86;81.45
51099;BME280;37146;48.210;16.234;2023-05-19T08:48:02;99475.69;;;14.15;80.66
51099;BME280;37146;48.210;16.234;2023-05-19T08:50:29;99472.94;;;14.46;84.45
51099;BME280;37146;48.210;16.234;2023-05-19T08:52:55;99474.91;;;15.03;76.57
51099;BME280;37146;48.210;16.234;2023-05-19T08:57:51;99481.34;;;14.86;77.87
51099;BME280;37146;48.210;16.234;2023-05-19T09:00:17;99477.47;;;14.90;76.67
51099;BME280;37146;48.210;16.234;2023-05-19T09:02:43;99470.72;;;14.68;77.50
51099;BME280;37146;48.210;16.234;2023-05-19T09:05:09;99470.53;;;15.00;74.81
51099;BME280;37146;48.210;16.234;2023-05-19T09:07:35;99475.50;;;15.50;78.72
51099;BME280;37146;48.210;16.234;2023-05-19T09:10:01;99468.44;;;14.91;80.08
51099;BME280;37146;48.210;16.234;2023-05-19T09:12:27;99465.72;;;14.01;78.83
51099;BME280;37146;48.210;16.234;2023-05-19T09:14:52;99470.56;;;14.11;78.09
51099;BME280;37146;48.210;16.234;2023-05-19T09:17:17;99460.19;;;13.88;78.45
51099;BME280;37146;48.210;16.234;2023-05-19T09:19:45;99466.41;;;14.35;77.02
51099;BME280;37146;48.210;16.234;2023-05-19T09:22:12;99471.81;;;14.50;77.72
51099;BME280;37146;48.210;16.234;2023-05-19T09:24:38;99466.56;;;14.18;77.21
51099;BME280;37146;48.210;16.234;2023-05-19T09:27:04;99470.25;;;14.46;81.23
51099;BME280;37146;48.210;16.234;2023-05-19T09:29:29;99465.44;;;14.96;78.21
51099;BME280;37146;48.210;16.234;2023-05-19T09:31:55;99463.53;;;14.98;77.15
51099;BME280;37146;48.210;16.234;2023-05-19T09:34:24;99459.38;;;14.78;76.35
51099;BME280;37146;48.210;16.234;2023-05-19T09:36:51;99457.59;;;14.93;74.92
51099;BME280;37146;48.210;16.234;2023-05-19T09:39:20;99461.34;;;15.88;76.09
51099;BME280;37146;48.210;16.234;2023-05-19T09:41:46;99449.81;;;15.86;72.95
51099;BME280;37146;48.210;16.234;2023-05-19T09:44:24;99446.81;;;15.91;73.27
51099;BME280;37146;48.210;16.234;2023-05-19T09:46:54;99446.06;;;15.33;71.86
51099;BME280;37146;48.210;16.234;2023-05-19T09:49:20;99447.84;;;15.61;71.29
51099;BME280;37146;48.210;16.234;2023-05-19T09:51:48;99438.06;;;16.28;69.58
51099;BME280;37146;48.210;16.234;2023-05-19T09:54:13;99430.00;;;16.66;70.42
51099;BME280;37146;48.210;16.234;2023-05-19T09:56:39;99435.41;;;17.05;70.97
51099;BME280;37146;48.210;16.234;2023-05-19T09:59:04;99434.91;;;16.21;67.62
51099;BME280;37146;48.210;16.234;2023-05-19T10:01:31;99433.22;;;16.46;67.92
51099;BME280;37146;48.210;16.234;2023-05-19T10:03:57;99434.19;;;16.83;67.73
51099;BME280;37146;48.210;16.234;2023-05-19T10:06:23;99434.94;;;16.60;67.35
51099;BME280;37146;48.210;16.234;2023-05-19T10:08:49;99427.81;;;16.59;67.56
51099;BME280;37146;48.210;16.234;2023-05-19T10:11:15;99426.53;;;16.51;67.28
51099;BME280;37146;48.210;16.234;2023-05-19T10:13:41;99425.50;;;16.14;68.47
51099;BME280;37146;48.210;16.234;2023-05-19T10:16:07;99427.31;;;16.13;68.66
51099;BME280;37146;48.210;16.234;2023-05-19T10:18:33;99433.53;;;16.41;68.38
51099;BME280;37146;48.210;16.234;2023-05-19T10:20:59;99432.78;;;17.17;66.93
51099;BME280;37146;48.210;16.234;2023-05-19T10:23:24;99416.91;;;17.73;68.61
51099;BME280;37146;48.210;16.234;2023-05-19T10:25:50;99423.47;;;17.58;63.62
51099;BME280;37146;48.210;16.234;2023-05-19T10:28:17;99418.63;;;17.50;64.27
51099;BME280;37146;48.210;16.234;2023-05-19T10:30:49;99406.13;;;17.36;65.83
51099;BME280;37146;48.210;16.234;2023-05-19T10:33:16;99416.25;;;16.82;68.24
51099;BME280;37146;48.210;16.234;2023-05-19T10:38:23;99405.44;;;17.94;65.38
51099;BME280;37146;48.210;16.234;2023-05-19T10:45:51;99405.38;;;16.97;70.30
51099;BME280;37146;48.210;16.234;2023-05-19T10:48:18;99411.69;;;18.66;65.01
51099;BME280;37146;48.210;16.234;2023-05-19T10:50:44;99401.94;;;18.86;60.93
51099;BME280;37146;48.210;16.234;2023-05-19T10:53:16;99396.81;;;19.28;58.85
51099;BME280;37146;48.210;16.234;2023-05-19T10:55:44;99405.38;;;18.65;62.66
51099;BME280;37146;48.210;16.234;2023-05-19T10:58:10;99405.31;;;18.78;60.64
51099;BME280;37146;48.210;16.234;2023-05-19T11:00:35;99408.22;;;18.05;62.67
51099;BME280;37146;48.210;16.234;2023-05-19T11:03:15;99406.63;;;18.14;65.32
51099;BME280;37146;48.210;16.234;2023-05-19T11:05:41;99400.84;;;18.66;65.84
51099;BME280;37146;48.210;16.234;2023-05-19T11:08:10;99402.69;;;18.65;63.29
51099;BME280;37146;48.210;16.234;2023-05-19T11:10:36;99399.22;;;18.41;71.32
51099;BME280;37146;48.210;16.234;2023-05-19T11:13:01;99409.59;;;17.38;68.19
51099;BME280;37146;48.210;16.234;2023-05-19T11:15:28;99405.47;;;16.57;70.18
51099;BME280;37146;48.210;16.234;2023-05-19T11:17:55;99398.13;;;16.97;70.95
51099;BME280;37146;48.210;16.234;2023-05-19T11:20:21;99392.50;;;16.62;70.44
51099;BME280;37146;48.210;16.234;2023-05-19T11:25:40;99394.66;;;18.52;64.15
51099;BME280;37146;48.210;16.234;2023-05-19T11:28:05;99400.25;;;18.62;64.71
51099;BME280;37146;48.210;16.234;2023-05-19T11:30:30;99406.19;;;17.10;68.39
51099;BME280;37146;48.210;16.234;2023-05-19T11:32:56;99395.44;;;18.89;65.57
51099;BME280;37146;48.210;16.234;2023-05-19T11:35:21;99398.00;;;18.67;64.69
51099;BME280;37146;48.210;16.234;2023-05-19T11:37:47;99387.69;;;18.61;63.74
51099;BME280;37146;48.210;16.234;2023-05-19T11:40:13;99377.31;;;20.84;63.28
51099;BME280;37146;48.210;16.234;2023-05-19T11:42:39;99388.44;;;22.51;54.52
51099;BME280;37146;48.210;16.234;2023-05-19T11:45:05;99394.03;;;22.11;56.07
51099;BME280;37146;48.210;16.234;2023-05-19T11:47:30;99389.34;;;22.80;52.76
51099;BME280;37146;48.210;16.234;2023-05-19T11:49:57;99378.25;;;20.52;58.38
51099;BME280;37146;48.210;16.234;2023-05-19T11:52:23;99379.06;;;18.90;62.34
51099;BME280;37146;48.210;16.234;2023-05-19T11:54:48;99372.78;;;18.67;62.82
51099;BME280;37146;48.210;16.234;2023-05-19T11:57:14;99384.09;;;18.02;65.66
51099;BME280;37146;48.210;16.234;2023-05-19T11:59:39;99383.31;;;17.40;67.16
51099;BME280;37146;48.210;16.234;2023-05-19T12:04:43;99376.44;;;17.96;67.16
51099;BME280;37146;48.210;16.234;2023-05-19T12:07:12;99374.38;;;18.69;70.39
51099;BME280;37146;48.210;16.234;2023-05-19T12:09:38;99378.78;;;18.36;66.04
51099;BME280;37146;48.210;16.234;2023-05-19T12:12:03;99377.28;;;17.48;67.40
51099;BME280;37146;48.210;16.234;2023-05-19T12:14:29;99367.81;;;17.67;68.11
51099;BME280;37146;48.210;16.234;2023-05-19T12:16:54;99368.94;;;18.58;66.59
51099;BME280;37146;48.210;16.234;2023-05-19T12:19:23;99366.53;;;18.19;66.42
51099;BME280;37146;48.210;16.234;2023-05-19T12:21:49;99368.94;;;18.69;65.92
51099;BME280;37146;48.210;16.234;2023-05-19T12:24:15;99373.63;;;18.67;64.71
51099;BME280;37146;48.210;16.234;2023-05-19T12:26:40;99377.88;;;18.36;63.76
51099;BME280;37146;48.210;16.234;2023-05-19T12:29:06;99367.22;;;18.57;65.76
51099;BME280;37146;48.210;16.234;2023-05-19T12:31:32;99368.13;;;18.11;64.91
51099;BME280;37146;48.210;16.234;2023-05-19T12:33:57;99372.31;;;18.15;67.77
51099;BME280;37146;48.210;16.234;2023-05-19T12:36:23;99366.41;;;17.37;68.95
51099;BME280;37146;48.210;16.234;2023-05-19T12:38:52;99373.78;;;16.84;69.52
51099;BME280;37146;48.210;16.234;2023-05-19T12:41:18;99364.66;;;17.24;70.52
51099;BME280;37146;48.210;16.234;2023-05-19T12:43:43;99363.56;;;18.00;67.25
51099;BME280;37146;48.210;16.234;2023-05-19T12:46:11;99360.34;;;18.06;67.79
51099;BME280;37146;48.210;16.234;2023-05-19T12:48:43;99357.78;;;17.56;68.49
51099;BME280;37146;48.210;16.234;2023-05-19T12:51:08;99354.03;;;16.97;71.58
51099;BME280;37146;48.210;16.234;2023-05-19T12:53:34;99356.34;;;17.14;70.49
51099;BME280;37146;48.210;16.234;2023-05-19T12:55:59;99356.69;;;17.34;72.27
51099;BME280;37146;48.210;16.234;2023-05-19T12:58:24;99353.34;;;17.06;70.72
51099;BME280;37146;48.210;16.234;2023-05-19T13:00:49;99358.94;;;17.16;72.13
51099;BME280;37146;48.210;16.234;2023-05-19T13:03:16;99341.69;;;16.93;70.37
51099;BME280;37146;48.210;16.234;2023-05-19T13:05:43;99347.41;;;17.01;71.20
51099;BME280;37146;48.210;16.234;2023-05-19T13:08:10;99340.28;;;16.87;71.88
51099;BME280;37146;48.210;16.234;2023-05-19T13:10:36;99347.63;;;16.85;72.27
51099;BME280;37146;48.210;16.234;2023-05-19T13:13:02;99341.50;;;16.96;73.23